Time;durP1;ratioP1;P1;durP2;ratioP2;P2;SDS_P1;SDS_P2;PMS_P1;PMS_P2;Temp;Humidity;BMP_temperature;BMP_pressure;BME280_temperature;BME280_humidity;BME280_pressure;Samples;Min_cycle;Max_cycle;Signal;HPM_P1;HPM_P2
2022/11/11 00:03:36;;;;;;;4.75;0.85;;;;;;;14.39;74.96;100606.47;5059051;28;20399;-49
2022/11/11 00:06:05;;;;;;;2.80;0.90;;;;;;;14.43;75.08;100622.06;5022361;28;20132;-49
2022/11/11 00:08:32;;;;;;;2.97;1.02;;;;;;;14.46;74.40;100622.06;5023097;28;20057;-48
2022/11/11 00:11:00;;;;;;;3.50;0.95;;;;;;;14.45;75.12;100617.72;5021932;28;20077;-49
2022/11/11 00:13:28;;;;;;;4.90;1.13;;;;;;;14.47;75.13;100628.97;5021395;28;20129;-50
2022/11/11 00:15:55;;;;;;;1.75;0.80;;;;;;;14.47;75.21;100621.16;5020386;28;20244;-48
2022/11/11 00:26:50;;;;;;;1.65;0.85;;;;;;;14.51;74.42;100638.50;5020671;28;20049;-48
2022/11/11 00:29:19;;;;;;;3.85;2.30;;;;;;;14.51;74.34;100646.31;5020502;28;20483;-48
2022/11/11 00:34:33;;;;;;;4.53;0.80;;;;;;;14.53;74.55;100639.38;4999903;28;20517;-49
2022/11/11 00:37:00;;;;;;;1.92;1.75;;;;;;;14.54;74.92;100638.47;4998227;28;20460;-48
2022/11/11 00:39:27;;;;;;;2.03;1.00;;;;;;;14.51;74.37;100656.75;5000390;28;20100;-47
2022/11/11 00:41:54;;;;;;;2.70;0.65;;;;;;;14.55;74.46;100621.94;5000211;28;20077;-49
2022/11/11 00:44:20;;;;;;;3.67;0.85;;;;;;;14.53;74.87;100626.31;4999922;28;20589;-48
2022/11/11 00:52:20;;;;;;;3.42;1.13;;;;;;;14.56;74.47;100628.88;4997426;28;20097;-52
2022/11/11 00:54:47;;;;;;;3.08;0.63;;;;;;;14.57;74.42;100620.19;4999679;28;20061;-49
2022/11/11 00:57:13;;;;;;;3.40;1.17;;;;;;;14.57;74.24;100625.41;5000178;28;20080;-47
2022/11/11 00:59:40;;;;;;;3.58;1.35;;;;;;;14.58;74.09;100637.56;4996635;28;20060;-48
2022/11/11 01:02:07;;;;;;;3.67;1.10;;;;;;;14.57;74.18;100628.03;4999262;28;20050;-48
2022/11/11 01:04:33;;;;;;;1.67;0.65;;;;;;;14.56;74.26;100628.88;4995358;28;20065;-49
2022/11/11 01:07:00;;;;;;;4.28;1.05;;;;;;;14.51;74.06;100630.69;4998865;28;20183;-49
2022/11/11 01:09:27;;;;;;;2.13;1.13;;;;;;;14.54;74.15;100635.88;4996915;28;20054;-49
2022/11/11 01:11:53;;;;;;;5.70;1.05;;;;;;;14.57;74.39;100641.06;5000824;28;20141;-47
2022/11/11 01:14:20;;;;;;;4.05;1.17;;;;;;;14.57;74.11;100643.66;4991450;28;20073;-48
2022/11/11 01:16:46;;;;;;;1.73;0.88;;;;;;;14.59;73.91;100630.63;4984178;28;20043;-50
2022/11/11 01:19:13;;;;;;;3.80;1.02;;;;;;;14.59;74.75;100636.69;4984479;28;20142;-48
2022/11/11 01:21:40;;;;;;;3.67;1.08;;;;;;;14.58;73.88;100629.75;4986411;28;20157;-48
2022/11/11 01:24:07;;;;;;;2.20;0.80;;;;;;;14.60;73.80;100630.59;4989707;28;20042;-48
2022/11/11 01:26:34;;;;;;;5.70;1.23;;;;;;;14.60;74.20;100630.59;4988800;28;20050;-51
2022/11/11 01:29:01;;;;;;;2.65;0.88;;;;;;;14.58;73.63;100627.13;4989309;28;20042;-46
2022/11/11 01:31:28;;;;;;;4.50;2.60;;;;;;;14.60;73.70;100625.41;4986136;28;20385;-48
2022/11/11 01:33:54;;;;;;;4.38;0.90;;;;;;;14.58;74.04;100616.72;4987150;28;20465;-49
2022/11/11 01:36:24;;;;;;;5.07;0.93;;;;;;;14.62;73.72;100628.84;4987794;28;20046;-48
2022/11/11 01:38:53;;;;;;;3.30;1.00;;;;;;;14.61;73.62;100629.72;4987847;28;20159;-49
2022/11/11 01:41:39;;;;;;;4.90;1.00;;;;;;;14.62;73.73;100628.84;4988385;28;20572;-49
2022/11/11 01:46:56;;;;;;;3.95;1.42;;;;;;;14.63;73.11;100632.31;5025037;28;20407;-51
2022/11/11 01:49:46;;;;;;;4.15;1.83;;;;;;;14.61;73.56;100626.22;5003620;28;20133;-50
2022/11/11 01:55:11;;;;;;;1.88;0.95;;;;;;;14.85;72.86;100630.38;5111542;27;20408;-48
2022/11/11 02:00:17;;;;;;;2.53;0.30;;;;;;;14.75;73.50;100631.31;5045093;28;20373;-50
2022/11/11 02:05:44;;;;;;;2.35;0.60;;;;;;;14.75;73.07;100628.69;5080377;27;20152;-48
2022/11/11 02:08:31;;;;;;;4.78;0.55;;;;;;;14.71;73.35;100621.78;5077975;28;20575;-50
2022/11/11 02:11:03;;;;;;;0.95;0.50;;;;;;;14.74;72.68;100632.19;5078689;28;20048;-48
2022/11/11 02:16:18;;;;;;;1.70;0.50;;;;;;;14.70;73.05;100620.06;5075820;28;20055;-48
2022/11/11 02:18:44;;;;;;;2.75;0.47;;;;;;;14.73;72.80;100604.41;5077190;28;20059;-48
2022/11/11 02:21:17;;;;;;;2.75;0.95;;;;;;;14.72;73.11;100597.44;5081303;28;20793;-48
2022/11/11 02:26:30;;;;;;;3.78;2.63;;;;;;;14.73;72.60;100605.25;5009298;28;20419;-48
2022/11/11 02:28:58;;;;;;;2.22;2.03;;;;;;;14.71;72.58;100600.94;4999997;28;20058;-48
2022/11/11 02:31:28;;;;;;;2.05;1.85;;;;;;;14.73;71.85;100588.75;5017045;28;20067;-48
2022/11/11 02:33:55;;;;;;;6.10;1.90;;;;;;;14.74;72.74;100611.34;5011437;28;20042;-47
2022/11/11 02:36:22;;;;;;;1.35;0.98;;;;;;;14.72;72.78;100594.81;5022197;28;20905;-47
2022/11/11 02:38:49;;;;;;;2.42;2.08;;;;;;;14.70;72.75;100594.88;5022629;28;21762;-47
2022/11/11 02:44:03;;;;;;;1.85;1.63;;;;;;;14.70;72.20;100588.78;5019195;28;20127;-48
2022/11/11 02:46:30;;;;;;;5.38;2.25;;;;;;;14.68;72.02;100588.78;5020570;28;20076;-47
2022/11/11 02:48:57;;;;;;;3.95;2.13;;;;;;;14.68;71.91;100585.31;5019383;28;20588;-48
2022/11/11 02:51:23;;;;;;;4.72;2.35;;;;;;;14.67;72.45;100579.25;5017632;28;20046;-47
2022/11/11 02:53:50;;;;;;;3.13;1.92;;;;;;;14.59;72.52;100581.94;5018919;28;20049;-48
2022/11/11 02:57:05;;;;;;;4.38;2.53;;;;;;;14.61;72.17;100581.91;5021756;28;20483;-47
2022/11/11 02:59:03;;;;;;;3.03;2.22;;;;;;;14.59;72.93;100589.75;5015346;28;20061;-48
2022/11/11 03:01:30;;;;;;;4.18;2.55;;;;;;;14.59;73.46;100587.16;5021211;28;20505;-47
2022/11/11 03:03:57;;;;;;;2.67;2.03;;;;;;;14.60;73.18;100583.69;5016189;28;20070;-48
2022/11/11 03:06:23;;;;;;;5.05;2.15;;;;;;;14.60;72.77;100594.13;5016186;28;20049;-47
2022/11/11 03:08:50;;;;;;;3.58;3.17;;;;;;;14.62;72.19;100602.75;5015495;28;20087;-52
2022/11/11 03:11:26;;;;;;;5.55;2.42;;;;;;;14.63;72.58;100588.84;5018491;28;20057;-47
2022/11/11 03:13:54;;;;;;;2.50;2.30;;;;;;;14.63;72.93;100591.44;5015810;28;20072;-49
2022/11/11 03:19:09;;;;;;;2.40;2.13;;;;;;;14.64;72.41;100595.81;5001314;28;20049;-48
2022/11/11 03:21:36;;;;;;;3.17;2.40;;;;;;;14.67;72.42;100601.84;5017016;28;20050;-50
2022/11/11 03:24:22;;;;;;;13.07;1.33;;;;;;;14.67;72.82;100602.72;5016795;28;20476;-52
2022/11/11 03:26:49;;;;;;;5.85;2.85;;;;;;;14.68;73.00;100614.88;5017093;28;20141;-49
2022/11/11 03:29:16;;;;;;;5.43;3.20;;;;;;;14.69;72.97;100613.97;5017086;28;20085;-48
2022/11/11 03:31:42;;;;;;;3.10;2.88;;;;;;;14.71;72.81;100606.13;5014803;28;20497;-48
2022/11/11 03:34:25;;;;;;;3.13;1.88;;;;;;;14.67;72.62;100599.25;5017579;28;20560;-50
2022/11/11 03:39:38;;;;;;;3.35;2.60;;;;;;;14.72;72.82;100602.66;5003107;28;20791;-48
2022/11/11 03:42:04;;;;;;;2.70;1.75;;;;;;;14.72;72.93;100598.31;5002891;28;20136;-49
2022/11/11 03:44:31;;;;;;;4.72;2.35;;;;;;;14.72;72.47;100598.31;4999555;28;20088;-49
2022/11/11 03:46:57;;;;;;;4.50;2.13;;;;;;;14.72;72.81;100597.44;5004330;28;20116;-48
2022/11/11 03:49:24;;;;;;;3.20;1.90;;;;;;;14.71;72.98;100606.13;4997301;28;20049;-49
2022/11/11 03:51:51;;;;;;;2.67;2.25;;;;;;;14.75;73.04;100607.84;4997951;28;20104;-51
2022/11/11 03:54:17;;;;;;;2.42;1.42;;;;;;;14.76;73.01;100601.75;5006587;28;20092;-49
2022/11/11 03:56:44;;;;;;;3.25;1.98;;;;;;;14.78;72.82;100605.22;5005492;28;20133;-49
2022/11/11 03:59:11;;;;;;;8.73;2.33;;;;;;;14.75;72.52;100613.03;5007941;28;20124;-49
2022/11/11 04:21:41;;;;;;;3.83;2.58;;;;;;;14.84;72.63;100612.13;5007085;28;20136;-49
2022/11/11 04:23:51;;;;;;;3.33;1.83;;;;;;;14.86;72.96;100619.03;5002069;28;20069;-47
2022/11/11 04:26:17;;;;;;;4.35;2.30;;;;;;;14.79;72.45;100614.78;5003050;28;20096;-50
2022/11/11 04:31:30;;;;;;;5.30;2.80;;;;;;;14.85;72.47;100626.88;4998532;28;20131;-50
2022/11/11 04:33:57;;;;;;;4.30;2.85;;;;;;;14.83;72.48;100620.84;4999628;28;20042;-49
2022/11/11 04:36:24;;;;;;;7.20;2.55;;;;;;;14.84;72.87;100627.75;5002071;28;20104;-51
2022/11/11 04:41:37;;;;;;;3.67;2.22;;;;;;;14.86;72.42;100632.09;5002016;28;20074;-48
2022/11/11 04:47:10;;;;;;;7.63;2.15;;;;;;;14.89;72.01;100634.66;5002726;28;20140;-49
2022/11/11 04:49:37;;;;;;;2.45;2.20;;;;;;;14.92;71.99;100633.75;4998686;28;20054;-48
2022/11/11 04:57:40;;;;;;;4.70;2.10;;;;;;;14.93;72.07;100639.84;5002823;28;20394;-50
2022/11/11 05:00:09;;;;;;;5.63;1.80;;;;;;;14.94;72.23;100644.19;5002161;28;20096;-50
2022/11/11 05:05:24;;;;;;;4.57;2.50;;;;;;;14.94;71.91;100644.19;4999367;28;20141;-50
2022/11/11 05:10:37;;;;;;;3.05;1.90;;;;;;;14.96;71.96;100658.06;5003704;28;20057;-49
2022/11/11 05:21:28;;;;;;;3.63;2.08;;;;;;;14.97;71.58;100673.72;5003831;28;20489;-50
2022/11/11 05:26:41;;;;;;;2.83;2.45;;;;;;;14.94;71.95;100665.03;5004756;28;20069;-50
2022/11/11 05:29:08;;;;;;;4.32;2.38;;;;;;;14.90;71.65;100649.41;4998105;28;20141;-50
2022/11/11 05:31:35;;;;;;;4.05;1.85;;;;;;;14.97;72.06;100657.19;5002687;28;20145;-48
2022/11/11 05:34:02;;;;;;;6.05;2.10;;;;;;;14.98;71.65;100666.72;4999479;28;20050;-51
2022/11/11 05:36:28;;;;;;;4.43;3.13;;;;;;;14.99;71.70;100663.22;5000858;28;20073;-48
2022/11/11 05:38:55;;;;;;;6.70;2.97;;;;;;;14.99;71.54;100663.22;5000938;28;20046;-51
2022/11/11 05:41:21;;;;;;;4.13;2.25;;;;;;;15.02;71.93;100663.19;4999954;28;20073;-48
2022/11/11 05:43:48;;;;;;;4.82;1.98;;;;;;;15.01;71.36;100671.91;5001598;28;20128;-50
2022/11/11 05:46:15;;;;;;;6.45;2.00;;;;;;;15.02;71.21;100668.41;5002808;28;20045;-48
2022/11/11 05:49:14;;;;;;;4.25;2.72;;;;;;;15.02;71.53;100668.41;4998823;28;20061;-48
2022/11/11 05:51:28;;;;;;;6.82;2.15;;;;;;;15.00;71.98;100672.81;4998031;28;20510;-48
2022/11/11 05:53:56;;;;;;;4.22;2.15;;;;;;;15.00;71.68;100675.41;5000131;28;20137;-49
2022/11/11 05:56:22;;;;;;;4.25;2.15;;;;;;;15.00;71.42;100676.25;5003983;28;20073;-47
2022/11/11 05:58:49;;;;;;;3.10;1.98;;;;;;;15.00;71.57;100670.19;5004729;28;20073;-48
2022/11/11 06:01:16;;;;;;;4.15;2.40;;;;;;;14.98;71.47;100671.94;5001973;28;20049;-50
2022/11/11 06:03:43;;;;;;;2.15;1.55;;;;;;;15.00;71.29;100678.03;5002438;28;20078;-48
2022/11/11 06:06:10;;;;;;;3.40;1.90;;;;;;;15.02;70.84;100682.34;4998983;28;20528;-49
2022/11/11 06:08:37;;;;;;;3.13;1.92;;;;;;;15.02;71.12;100689.28;5002888;28;20058;-47
2022/11/11 06:11:03;;;;;;;5.05;1.73;;;;;;;15.00;71.47;100693.69;5001569;28;20133;-51
2022/11/11 06:13:30;;;;;;;2.42;1.75;;;;;;;15.03;71.72;100691.03;5005409;28;20084;-49
2022/11/11 06:15:58;;;;;;;3.65;2.38;;;;;;;15.02;71.23;100695.38;5001647;28;20076;-50
2022/11/11 06:18:25;;;;;;;2.72;2.53;;;;;;;15.04;71.52;100698.81;5003730;28;20128;-48
2022/11/11 06:20:58;;;;;;;5.80;2.42;;;;;;;15.04;71.56;100700.59;4999339;28;20053;-49
2022/11/11 06:23:26;;;;;;;4.32;0.70;;;;;;;15.02;71.41;100698.00;5004628;28;20563;-48
2022/11/11 06:28:43;;;;;;;4.60;2.38;;;;;;;15.01;71.85;100700.63;5000233;28;20188;-48
2022/11/11 06:31:12;;;;;;;7.07;2.30;;;;;;;14.99;72.38;100689.31;5001424;28;20108;-49
2022/11/11 06:33:39;;;;;;;4.53;2.58;;;;;;;14.99;71.95;100694.53;5002212;28;20166;-48
2022/11/11 06:36:07;;;;;;;3.40;2.42;;;;;;;14.97;72.18;100691.09;5001353;28;20116;-52
2022/11/11 06:38:33;;;;;;;5.45;0.90;;;;;;;14.98;72.10;100690.22;4999941;28;20640;-48
2022/11/11 06:41:00;;;;;;;5.10;2.53;;;;;;;14.96;72.21;100684.16;5002818;28;20137;-47
2022/11/11 06:43:27;;;;;;;5.20;2.13;;;;;;;14.99;72.31;100702.34;5005103;28;20042;-47
2022/11/11 06:45:54;;;;;;;4.15;2.60;;;;;;;15.01;71.75;100711.06;5003631;28;20125;-48
2022/11/11 06:48:22;;;;;;;7.55;2.17;;;;;;;14.98;71.99;100693.69;5003704;28;20181;-48
2022/11/11 06:50:49;;;;;;;6.50;5.07;;;;;;;14.99;71.93;100700.63;5001249;28;20042;-50
2022/11/11 06:53:17;;;;;;;5.50;2.15;;;;;;;14.98;71.15;100713.69;5001802;28;20112;-48
2022/11/11 06:55:44;;;;;;;2.58;0.93;;;;;;;14.95;71.29;100703.28;5001210;28;20449;-49
2022/11/11 06:58:15;;;;;;;6.72;2.00;;;;;;;14.99;70.82;100710.19;5001298;28;20073;-48
2022/11/11 07:00:42;;;;;;;3.70;2.33;;;;;;;14.96;70.83;100711.09;5000740;28;20054;-48
2022/11/11 07:03:12;;;;;;;8.27;3.42;;;;;;;15.00;70.66;100717.16;4999098;28;20054;-49
2022/11/11 07:05:39;;;;;;;5.18;2.33;;;;;;;14.99;70.34;100713.66;5001441;28;20100;-49
2022/11/11 07:08:08;;;;;;;2.65;2.00;;;;;;;15.00;70.43;100728.44;5000454;28;20530;-51
2022/11/11 07:10:37;;;;;;;3.95;1.90;;;;;;;14.97;70.56;100702.41;5000333;28;20062;-48
2022/11/11 07:13:05;;;;;;;1.90;1.80;;;;;;;15.00;70.55;100728.44;5004450;28;20136;-48
2022/11/11 07:15:33;;;;;;;1.92;0.50;;;;;;;14.98;69.84;100713.69;5004763;28;20461;-49
2022/11/11 07:18:00;;;;;;;3.15;1.10;;;;;;;14.99;70.10;100720.63;5006176;28;20437;-48
2022/11/11 07:20:27;;;;;;;3.47;3.17;;;;;;;14.98;69.88;100729.34;5001970;28;20070;-48
2022/11/11 07:22:53;;;;;;;3.25;2.15;;;;;;;14.97;70.29;100733.72;5005707;28;20105;-48
2022/11/11 07:25:20;;;;;;;5.40;2.60;;;;;;;14.95;70.26;100734.56;5006200;28;20137;-48
2022/11/11 07:27:47;;;;;;;3.78;2.25;;;;;;;14.98;70.57;100739.75;5009011;28;20096;-49
2022/11/11 07:30:13;;;;;;;4.60;2.17;;;;;;;14.97;70.27;100743.25;5005066;28;20053;-47
2022/11/11 07:32:45;;;;;;;5.30;2.85;;;;;;;14.99;69.97;100737.16;5007416;28;20136;-48
2022/11/11 07:35:14;;;;;;;6.03;2.40;;;;;;;15.01;70.23;100742.34;5005110;28;20049;-47
2022/11/11 07:37:41;;;;;;;4.82;2.88;;;;;;;15.03;70.48;100748.44;5003404;28;20530;-51
2022/11/11 07:40:09;;;;;;;3.75;2.47;;;;;;;15.01;70.67;100751.06;5001499;28;20157;-49
2022/11/11 07:42:38;;;;;;;4.30;2.45;;;;;;;15.01;71.38;100747.56;4996030;28;20050;-50
2022/11/11 07:45:06;;;;;;;3.90;2.50;;;;;;;15.02;71.06;100746.69;4996260;28;20137;-47
2022/11/11 07:47:34;;;;;;;4.78;2.50;;;;;;;15.02;71.29;100746.69;4994718;28;20060;-49
2022/11/11 07:50:02;;;;;;;7.20;2.15;;;;;;;15.02;71.60;100752.78;5003447;28;20137;-50
2022/11/11 07:52:35;;;;;;;4.35;2.65;;;;;;;15.02;71.91;100752.78;4983615;28;20062;-49
2022/11/11 07:55:03;;;;;;;3.90;2.75;;;;;;;15.04;71.48;100755.38;4999654;28;20108;-48
2022/11/11 07:57:30;;;;;;;5.38;2.65;;;;;;;15.01;71.05;100760.59;5002795;28;20081;-49
2022/11/11 07:59:57;;;;;;;7.53;2.25;;;;;;;15.01;71.98;100763.22;5001390;28;20069;-50
2022/11/11 08:02:24;;;;;;;3.63;2.42;;;;;;;15.03;71.58;100769.31;4996351;28;20176;-50
2022/11/11 08:04:50;;;;;;;3.15;0.80;;;;;;;15.01;71.67;100776.25;5002836;28;20596;-48
2022/11/11 08:07:22;;;;;;;8.02;2.83;;;;;;;15.03;71.67;100777.13;4999074;28;20081;-49
2022/11/11 08:09:50;;;;;;;5.05;2.08;;;;;;;15.02;71.35;100777.97;4998463;28;20222;-49
2022/11/11 08:15:04;;;;;;;3.70;0.60;;;;;;;15.02;71.10;100786.69;4998563;28;20935;-49
2022/11/11 08:17:40;;;;;;;3.28;1.73;;;;;;;15.00;70.87;100790.19;4997261;28;20497;-48
2022/11/11 08:20:08;;;;;;;3.72;2.40;;;;;;;15.03;70.52;100785.81;4999435;28;20057;-50
2022/11/11 08:22:39;;;;;;;8.38;3.20;;;;;;;15.04;71.26;100790.13;4997347;28;20046;-51
2022/11/11 08:25:09;;;;;;;5.65;2.72;;;;;;;15.02;71.06;100798.84;4996808;28;20446;-50
2022/11/11 08:27:37;;;;;;;7.00;2.47;;;;;;;14.99;71.41;100814.53;5000946;28;20077;-52
2022/11/11 08:30:06;;;;;;;13.40;3.83;;;;;;;14.98;70.30;100807.59;4996211;28;20162;-49
2022/11/11 08:32:33;;;;;;;4.90;2.20;;;;;;;14.99;70.54;100824.97;4993380;28;20057;-48
2022/11/11 08:35:00;;;;;;;3.25;2.47;;;;;;;15.00;70.38;100827.56;4997249;28;20045;-49
2022/11/11 08:37:27;;;;;;;4.70;3.08;;;;;;;15.00;70.24;100824.09;5002713;28;20056;-49
2022/11/11 08:39:54;;;;;;;3.58;2.15;;;;;;;14.98;70.25;100828.44;5003621;28;20524;-48
2022/11/11 08:42:20;;;;;;;2.90;1.98;;;;;;;15.00;70.63;100829.31;5004267;28;20050;-51
2022/11/11 08:44:47;;;;;;;4.28;2.28;;;;;;;15.00;70.29;100831.94;5005286;28;20081;-49
2022/11/11 08:47:14;;;;;;;4.38;2.65;;;;;;;14.99;70.65;100831.06;5002864;28;20096;-48
2022/11/11 08:49:41;;;;;;;2.50;1.95;;;;;;;14.92;70.14;100815.47;5002215;28;20489;-50
2022/11/11 08:52:08;;;;;;;6.82;1.98;;;;;;;14.89;70.08;100827.66;5003012;28;20069;-48
2022/11/11 08:54:34;;;;;;;4.47;2.00;;;;;;;14.93;69.67;100840.69;5000379;28;20138;-50
2022/11/11 08:57:01;;;;;;;2.20;1.55;;;;;;;14.97;69.83;100827.59;4999048;28;20069;-51
2022/11/11 08:59:27;;;;;;;3.45;2.08;;;;;;;14.95;69.71;100850.22;5000623;28;20144;-49
2022/11/11 09:01:54;;;;;;;3.85;2.50;;;;;;;14.95;69.47;100851.94;5003257;28;20135;-47
2022/11/11 09:04:21;;;;;;;4.82;1.77;;;;;;;15.00;69.14;100852.81;5004821;28;20045;-49
2022/11/11 09:07:09;;;;;;;3.50;2.25;;;;;;;14.99;69.53;100861.47;5002589;28;20827;-48
2022/11/11 09:09:36;;;;;;;4.13;2.47;;;;;;;15.03;69.38;100858.00;5005757;28;20137;-52
2022/11/11 09:12:03;;;;;;;2.80;1.60;;;;;;;15.02;69.31;100861.47;4999889;28;20050;-48
2022/11/11 09:14:30;;;;;;;3.20;2.22;;;;;;;15.06;69.41;100867.53;5001578;28;20133;-51
2022/11/11 09:16:56;;;;;;;2.50;1.50;;;;;;;14.99;69.29;100856.25;5005163;28;20157;-49
2022/11/11 09:19:23;;;;;;;2.50;2.25;;;;;;;15.05;69.18;100861.44;5003739;28;20140;-49
2022/11/11 09:21:51;;;;;;;0.98;0.45;;;;;;;15.04;68.61;100867.53;5006248;28;20449;-51
2022/11/11 09:24:18;;;;;;;3.42;1.95;;;;;;;15.03;68.48;100868.44;5002938;28;20073;-50
2022/11/11 09:26:48;;;;;;;4.25;2.50;;;;;;;15.04;68.29;100875.38;4994051;28;20730;-51
2022/11/11 09:29:15;;;;;;;2.35;0.90;;;;;;;15.03;68.48;100873.66;5006869;28;20648;-49
2022/11/11 09:31:42;;;;;;;5.43;2.17;;;;;;;15.05;69.00;100887.53;4996501;28;20042;-50
2022/11/11 09:34:11;;;;;;;1.73;1.63;;;;;;;15.07;68.71;100885.78;5001968;28;20046;-47
2022/11/11 09:36:38;;;;;;;4.20;1.95;;;;;;;15.06;68.94;100899.69;5001229;28;20458;-52
2022/11/11 09:39:05;;;;;;;4.22;1.67;;;;;;;15.01;68.89;100888.44;5006468;28;20107;-48
2022/11/11 09:45:08;;;;;;;2.03;0.73;;;;;;;15.02;69.01;100897.97;5030419;28;20890;-49
2022/11/11 09:48:01;;;;;;;5.45;1.08;;;;;;;15.07;69.56;100904.06;4990197;28;20649;-48
2022/11/11 09:50:39;;;;;;;1.52;0.80;;;;;;;15.09;69.62;100899.66;5002502;28;20050;-48
2022/11/11 09:55:48;;;;;;;2.05;0.68;;;;;;;15.11;69.27;100897.94;5028589;28;20425;-47
2022/11/11 09:58:21;;;;;;;1.88;0.55;;;;;;;15.13;69.37;100905.75;5018038;28;20124;-48
2022/11/11 10:00:59;;;;;;;0.88;0.40;;;;;;;15.13;69.41;100906.59;5017126;28;20045;-50
2022/11/11 10:03:29;;;;;;;4.15;2.00;;;;;;;15.16;68.54;100922.22;5018485;28;20049;-48
2022/11/11 10:11:24;;;;;;;3.63;1.02;;;;;;;15.22;68.98;100928.28;5034016;28;22625;-48
2022/11/11 10:13:54;;;;;;;1.38;0.70;;;;;;;15.25;69.13;100923.03;5021020;28;20073;-50
2022/11/11 10:22:08;;;;;;;3.85;1.52;;;;;;;15.55;68.53;100919.31;5149223;27;20394;-49
2022/11/11 10:24:41;;;;;;;5.22;1.20;;;;;;;15.46;69.60;100923.72;5098031;28;20098;-51
2022/11/11 10:27:18;;;;;;;3.00;1.33;;;;;;;15.47;69.02;100920.25;5097974;28;20047;-48
2022/11/11 10:29:45;;;;;;;2.88;0.95;;;;;;;15.51;69.21;100917.56;5099411;28;20052;-48
2022/11/11 10:34:48;;;;;;;2.95;0.63;;;;;;;15.59;69.95;100932.31;5040634;28;20404;-55
2022/11/11 10:37:24;;;;;;;1.88;0.73;;;;;;;15.57;69.37;100932.31;5037330;28;20052;-49
2022/11/11 10:42:42;;;;;;;4.97;1.13;;;;;;;15.67;68.88;100920.91;5093895;27;20401;-49
2022/11/11 10:45:26;;;;;;;3.22;0.63;;;;;;;15.68;69.54;100925.25;5059896;28;20044;-49
2022/11/11 10:48:05;;;;;;;2.75;0.95;;;;;;;15.71;69.79;100928.72;5075632;28;20049;-49
2022/11/11 10:53:51;;;;;;;2.97;2.40;;;;;;;15.74;69.59;100913.03;5032502;28;20410;-47
2022/11/11 11:01:55;;;;;;;2.55;1.02;;;;;;;15.88;69.46;100926.78;5045239;27;20408;-50
2022/11/11 11:07:05;;;;;;;2.90;0.95;;;;;;;15.92;69.59;100920.66;5130218;27;20163;-49
2022/11/11 11:09:42;;;;;;;2.20;1.00;;;;;;;16.00;69.12;100927.56;5059942;28;20047;-49
2022/11/11 11:12:19;;;;;;;1.92;0.98;;;;;;;16.02;69.45;100920.59;5080630;28;20557;-48
2022/11/11 11:14:50;;;;;;;2.42;0.90;;;;;;;16.06;69.54;100930.13;5079210;28;20660;-47
2022/11/11 11:17:25;;;;;;;3.65;0.95;;;;;;;16.08;69.39;100923.13;5082756;28;20139;-48
2022/11/11 11:20:08;;;;;;;6.90;0.93;;;;;;;16.08;69.54;100925.75;5066100;28;20405;-48
2022/11/11 11:22:52;;;;;;;5.28;1.02;;;;;;;16.09;69.22;100919.63;5051439;28;20490;-47
2022/11/11 11:25:20;;;;;;;1.70;1.00;;;;;;;16.16;69.18;100926.53;5065663;28;20044;-51
2022/11/11 11:27:50;;;;;;;2.83;0.98;;;;;;;16.17;69.94;100928.25;5058993;28;20072;-50
2022/11/11 11:38:11;;;;;;;3.63;0.93;;;;;;;16.19;69.89;100916.00;5061473;28;20424;-48
2022/11/11 11:40:55;;;;;;;2.85;1.02;;;;;;;16.12;69.72;100919.59;5043102;28;20137;-49
2022/11/11 11:43:42;;;;;;;5.15;2.33;;;;;;;16.12;69.97;100914.38;5042989;28;20399;-51
2022/11/11 11:46:36;;;;;;;2.65;1.08;;;;;;;16.12;69.79;100919.59;5030493;28;20071;-47
2022/11/11 11:49:33;;;;;;;5.85;1.23;;;;;;;16.09;70.31;100924.88;5027462;28;20051;-50
2022/11/11 12:00:12;;;;;;;4.30;1.02;;;;;;;16.10;70.31;100912.63;5054696;28;20399;-48
2022/11/11 12:03:16;;;;;;;4.03;0.93;;;;;;;16.10;70.14;100915.25;5001175;28;20058;-51
2022/11/11 12:05:48;;;;;;;4.43;0.88;;;;;;;16.10;70.70;100918.75;4998600;28;20128;-50
2022/11/11 12:08:36;;;;;;;3.05;0.70;;;;;;;16.04;70.04;100922.28;4997621;28;20516;-47
2022/11/11 12:16:31;;;;;;;3.08;0.70;;;;;;;16.18;70.28;100921.28;5051291;28;20394;-49
2022/11/11 12:21:49;;;;;;;4.30;1.17;;;;;;;16.30;70.01;100936.81;5059014;28;20400;-47
2022/11/11 12:41:07;;;;;;;8.15;1.40;;;;;;;16.65;70.16;100934.59;5036350;27;20421;-48
2022/11/11 12:55:09;;;;;;;5.50;2.65;;;;;;;16.67;69.47;100921.50;5058237;27;20411;-48
2022/11/11 12:57:55;;;;;;;7.35;1.35;;;;;;;16.70;69.14;100932.81;5038878;28;20072;-50
2022/11/11 13:00:24;;;;;;;4.75;2.10;;;;;;;16.77;69.75;100932.69;5060394;28;20080;-53
2022/11/11 13:11:22;;;;;;;4.47;1.65;;;;;;;16.73;69.25;100936.25;5044633;28;20416;-48
2022/11/11 13:16:29;;;;;;;4.75;2.13;;;;;;;17.04;68.26;100941.03;5078016;27;20390;-48
2022/11/11 13:19:03;;;;;;;8.52;3.67;;;;;;;16.76;69.61;100930.97;5054182;28;20056;-50
2022/11/11 13:21:58;;;;;;;4.63;2.63;;;;;;;16.73;69.45;100931.00;5056753;28;20060;-50
2022/11/11 13:24:27;;;;;;;4.38;2.25;;;;;;;16.73;69.46;100926.66;5053456;28;20044;-47
2022/11/11 13:26:59;;;;;;;5.78;2.35;;;;;;;16.70;68.84;100927.56;5076500;28;20563;-49
2022/11/11 13:30:06;;;;;;;6.00;2.58;;;;;;;16.59;69.27;100929.47;5055986;28;20042;-48
2022/11/11 13:32:40;;;;;;;4.72;2.30;;;;;;;16.63;68.74;100933.78;5044596;28;20064;-53
2022/11/11 13:35:23;;;;;;;5.43;2.83;;;;;;;16.60;69.10;100939.03;5055010;28;20140;-48
2022/11/11 13:37:50;;;;;;;;;;;;;;;16.50;69.08;100930.44;5056458;28;20040;-48
2022/11/11 13:40:39;;;;;;;7.28;2.28;;;;;;;16.56;68.71;100934.72;5055820;28;19952;-49
2022/11/11 13:43:44;;;;;;;4.47;1.25;;;;;;;16.56;68.45;100926.88;5050495;28;20665;-50
2022/11/11 13:49:22;;;;;;;4.07;1.55;;;;;;;16.56;68.42;100934.72;5008320;28;20758;-49
2022/11/11 13:51:58;;;;;;;6.38;1.48;;;;;;;16.59;68.70;100929.47;4974831;28;20325;-47
2022/11/11 13:54:47;;;;;;;5.28;1.10;;;;;;;16.57;68.61;100931.22;4979075;28;20166;-47
2022/11/11 13:59:59;;;;;;;4.78;1.40;;;;;;;16.60;68.90;100928.56;4986531;28;20412;-48
2022/11/11 14:02:27;;;;;;;;;;;;;;;16.49;68.97;100933.09;4974292;28;20038;-48
2022/11/11 14:07:55;;;;;;;4.53;1.13;;;;;;;16.66;68.41;100938.97;5016595;28;20411;-49
2022/11/11 14:15:53;;;;;;;6.60;1.60;;;;;;;16.66;68.69;100922.41;5110275;27;20477;-48
2022/11/11 14:20:55;;;;;;;6.30;2.00;;;;;;;16.63;68.15;100940.75;5034341;28;20401;-47
2022/11/11 14:26:22;;;;;;;7.50;2.97;;;;;;;16.57;68.22;100936.47;5013329;28;20736;-49
2022/11/11 14:28:54;;;;;;;6.85;3.03;;;;;;;16.56;67.75;100938.19;4992200;28;20047;-48
2022/11/11 14:39:50;;;;;;;5.40;1.98;;;;;;;16.52;68.25;100938.28;5065350;27;20395;-48
2022/11/11 14:48:45;;;;;;;6.95;3.30;;;;;;;16.48;68.19;100937.44;4997697;27;20450;-49
2022/11/11 14:51:36;;;;;;;3.95;2.70;;;;;;;16.47;68.44;100934.84;4990210;28;20129;-50
2022/11/11 14:54:13;;;;;;;8.45;3.63;;;;;;;16.53;68.32;100925.19;5008167;28;20131;-47
2022/11/11 14:56:40;;;;;;;4.40;2.20;;;;;;;16.49;67.88;100922.63;5006667;28;20137;-50
2022/11/11 14:59:13;;;;;;;5.70;2.28;;;;;;;16.49;68.20;100933.09;4980121;28;20054;-50
2022/11/11 15:01:39;;;;;;;4.15;2.35;;;;;;;16.48;67.82;100931.38;4981780;28;20070;-48
2022/11/11 15:04:08;;;;;;;5.88;2.15;;;;;;;16.45;68.18;100938.34;4984306;28;20046;-49
2022/11/11 15:06:44;;;;;;;4.18;2.10;;;;;;;16.42;68.06;100933.16;4984868;28;20573;-48
2022/11/11 15:09:34;;;;;;;10.65;2.95;;;;;;;16.40;67.88;100929.72;4994692;28;20116;-48
2022/11/11 15:15:04;;;;;;;2.67;1.40;;;;;;;16.33;68.20;100941.13;5009426;28;20408;-51
2022/11/11 15:18:11;;;;;;;5.20;1.10;;;;;;;16.30;68.46;100935.94;4998326;28;20778;-48
2022/11/11 15:20:59;;;;;;;6.38;3.65;;;;;;;16.30;67.92;100923.72;4987819;28;20149;-48
2022/11/11 15:29:41;;;;;;;4.47;2.20;;;;;;;16.25;67.83;100941.19;5017901;28;20919;-50
2022/11/11 15:32:21;;;;;;;3.97;2.22;;;;;;;16.23;67.88;100944.72;4967889;28;20053;-50
2022/11/11 15:37:51;;;;;;;3.17;1.15;;;;;;;16.13;68.17;100957.91;5074435;27;20408;-47
2022/11/11 15:40:20;;;;;;;4.40;1.23;;;;;;;16.11;67.72;100949.22;5041604;28;20095;-50
2022/11/11 15:42:50;;;;;;;6.82;1.00;;;;;;;16.08;67.62;100954.50;5040183;28;20560;-48
2022/11/11 15:47:53;;;;;;;5.18;0.95;;;;;;;16.05;68.49;100964.97;5027565;28;20394;-46
2022/11/11 15:52:59;;;;;;;7.38;1.40;;;;;;;16.01;68.41;100965.91;5038170;28;20398;-49